Terminal Aerodrome Forecast
Issued by NWS Sioux Falls, SD

Home | Current Version | Previous Version | Graphics & Text | Print | Product List | Glossary Off
Versions: 1 2 3 4 5 6 7 8 9 10 11 12 13 14 15 16 17 18 19 20 21 22 23 24 25 26 27 28 29 30 31 32

000
FTUS43 KFSD 181720
TAFSUX
TAF
KSUX 181720Z 1818/1918 08005KT 6SM -SHRA VCTS OVC060CB
      TEMPO 1818/1820 2SM -TSRA SCT025CB
     FM182200 15004KT P6SM SCT015 OVC060
     FM190000 15004KT P6SM SCT035 OVC060
     FM190900 22009KT 6SM BR VCSH OVC015
     FM191200 33017G25KT P6SM OVC050=

USA.gov is the U.S. government's official web portal to all federal, state and local government web resources and services.